Accueil
METAR-TAF:

METAR-TAF

Aéroports :

Aéroport de Knock

Knock, Irlande

latitude: 53-54-37N, longitude: 008-49-05W, altitude: 203 m

Observation

Le bulletin a été fait il y a 7 heures et 47 minutes, à 13:30 UTC
Vent 4 kt de nord, variant entre nord et nord-est
Température 7°C
Humidité 66%
Pression 1038 hPa
Visibilité 10 km ou plus
Nuages fragmentés à une hauteur de 3000 ft

METAR: EIKN 261330Z 01004KT 350V050 9999 BKN030 07/01 Q1038 NOSIG

Heure: 21:17 (21:17 UTC)

Prévision

Le bulletin a été fait il y a 10 heures et 17 minutes, à 11:00 UTC
Prévision valable du 26 à 12 UTC au 27 à 12 UTC
Vent 8 kt de nord
Visibilité 10 km ou plus
Quelques nuages à une hauteur de 1800 ft
Nuages fragmentés à une hauteur de 3500 ft
Evoluant progressivement
du 26 à 16 UTC au 26 à 18 UTC
Vent 3 kt de direction variable

TAF: EIKN 261100Z 2612/2712 35008KT 9999 FEW018 BKN035 BECMG 2616/2618 VRB03KT

Observations et prévisions météorologiques de plus de 4000 aéroports (messages METAR et TAF).

Les stations disponibles sont représentées par des disques jaunes et rouges sur la carte.

Passer la souris dessus pour voir le nom de la station.

Cliquer dessus pour voir les observations et prévisions météorologiques.

Pour changer de carte: cliquez sur les boutons verts avec une croix noire pour zoomer, sur le bouton vert avec un tiret pour effectuer un zoom arrière, ou sur les flèches vertes pour les cartes adjacentes.


METAR-TAF: